Time;durP1;ratioP1;P1;durP2;ratioP2;P2;SDS_P1;SDS_P2;PMS_P1;PMS_P2;Temp;Humidity;BMP_temperature;BMP_pressure;BME280_temperature;BME280_humidity;BME280_pressure;Samples;Min_cycle;Max_cycle;Signal;HPM_P1;HPM_P2
2022/11/29 00:01:05;;;;;;;42.20;23.92;;;;;;;2.30;90.39;101449.41;1811342;77;25897;-78
2022/11/29 00:03:33;;;;;;;46.83;25.70;;;;;;;2.32;90.36;101446.64;1807512;77;27600;-78
2022/11/29 00:06:09;;;;;;;51.15;27.32;;;;;;;2.33;90.23;101449.16;1789694;77;25918;-78
2022/11/29 00:08:36;;;;;;;49.55;27.52;;;;;;;2.34;90.17;101444.72;1787219;78;26423;-78
2022/11/29 00:11:05;;;;;;;43.95;23.65;;;;;;;2.34;90.10;101452.19;1804777;77;25934;-78
2022/11/29 00:13:32;;;;;;;47.73;25.57;;;;;;;2.31;89.84;101443.61;1807771;77;25725;-78
2022/11/29 00:16:04;;;;;;;46.40;25.37;;;;;;;2.32;90.11;101443.99;1804088;77;27459;-78
2022/11/29 00:18:31;;;;;;;50.25;25.45;;;;;;;2.30;89.93;101444.59;1808208;77;25952;-78
2022/11/29 00:20:58;;;;;;;50.25;25.65;;;;;;;2.30;90.11;101448.08;1777469;79;25805;-78
2022/11/29 00:23:25;;;;;;;46.63;25.90;;;;;;;2.30;90.03;101445.44;1775435;78;25783;-79
2022/11/29 00:25:52;;;;;;;51.58;24.47;;;;;;;2.29;89.82;101449.02;1775195;79;25870;-79
2022/11/29 00:28:18;;;;;;;43.95;23.95;;;;;;;2.26;89.98;101452.38;1783791;78;27433;-78
2022/11/29 00:30:44;;;;;;;44.23;24.10;;;;;;;2.29;90.22;101445.06;1825170;77;25715;-78
2022/11/29 00:33:11;;;;;;;46.58;23.80;;;;;;;2.31;89.98;101442.30;1823524;77;25757;-79
2022/11/29 00:35:37;;;;;;;49.85;25.15;;;;;;;2.28;89.99;101438.58;1825957;77;25463;-78
2022/11/29 00:38:03;;;;;;;46.00;26.20;;;;;;;2.29;89.97;101434.95;1825450;77;25273;-78
2022/11/29 00:40:29;;;;;;;49.38;26.82;;;;;;;2.26;89.97;101430.77;1827251;77;27439;-78
2022/11/29 00:42:56;;;;;;;51.20;25.65;;;;;;;2.26;89.94;101435.20;1823955;77;25890;-79
2022/11/29 00:45:22;;;;;;;43.78;25.43;;;;;;;2.23;89.99;101436.27;1821325;77;25787;-78
2022/11/29 00:47:48;;;;;;;45.88;25.17;;;;;;;2.23;90.03;101429.66;1830365;77;25777;-78
2022/11/29 00:50:14;;;;;;;47.38;25.10;;;;;;;2.24;90.13;101436.65;1828353;77;25731;-79
2022/11/29 00:52:41;;;;;;;48.10;23.35;;;;;;;2.22;89.94;101434.56;1818250;77;27410;-79
2022/11/29 00:55:08;;;;;;;47.43;23.25;;;;;;;2.22;90.17;101429.78;1824322;77;26468;-79
2022/11/29 00:57:34;;;;;;;46.25;25.17;;;;;;;2.23;90.12;101435.41;1816801;77;25770;-79
2022/11/29 01:00:00;;;;;;;51.30;25.90;;;;;;;2.23;90.18;101427.48;1822894;77;25702;-78
2022/11/29 01:02:27;;;;;;;52.55;26.25;;;;;;;2.24;90.16;101427.39;1825493;77;25775;-79
2022/11/29 01:04:53;;;;;;;42.83;23.62;;;;;;;2.24;90.04;101428.72;1825561;77;28140;-78
2022/11/29 01:07:19;;;;;;;49.23;25.25;;;;;;;2.20;89.96;101423.27;1822286;77;26454;-79
2022/11/29 01:09:46;;;;;;;46.98;24.18;;;;;;;2.21;90.11;101417.50;1822414;78;25825;-78
2022/11/29 01:12:12;;;;;;;42.98;23.45;;;;;;;2.21;90.08;101418.83;1823283;77;25681;-78
2022/11/29 01:14:38;;;;;;;43.98;24.10;;;;;;;2.20;90.08;101417.98;1817479;77;25808;-79
2022/11/29 01:17:05;;;;;;;51.58;24.65;;;;;;;2.20;90.21;101420.62;1819754;77;27429;-79
2022/11/29 01:19:31;;;;;;;48.98;24.23;;;;;;;2.23;90.24;101411.62;1829724;77;26382;-78
2022/11/29 01:21:57;;;;;;;45.98;24.37;;;;;;;2.22;90.07;101407.31;1812462;77;26309;-78
2022/11/29 01:24:23;;;;;;;50.28;24.65;;;;;;;2.21;90.07;101401.17;1816518;77;25727;-79
2022/11/29 01:26:50;;;;;;;46.20;24.67;;;;;;;2.21;90.09;101402.50;1831123;77;25755;-79
2022/11/29 01:29:16;;;;;;;45.58;24.82;;;;;;;2.17;90.09;101398.40;1813009;77;27490;-80
2022/11/29 01:31:42;;;;;;;44.18;23.40;;;;;;;2.16;90.12;101403.81;1820023;77;25763;-78
2022/11/29 01:34:09;;;;;;;43.42;22.77;;;;;;;2.15;90.16;101400.78;1804959;77;25764;-78
2022/11/29 01:36:36;;;;;;;45.43;24.52;;;;;;;2.15;90.22;101400.78;1795109;77;26355;-78
2022/11/29 01:39:04;;;;;;;44.00;22.60;;;;;;;2.15;90.28;101404.28;1795153;77;25787;-78
2022/11/29 01:41:34;;;;;;;49.20;23.75;;;;;;;2.17;90.29;101401.52;1797341;77;27421;-78
2022/11/29 01:44:12;;;;;;;47.55;24.50;;;;;;;2.19;90.32;101396.95;1793559;77;26327;-79
2022/11/29 01:46:45;;;;;;;46.23;24.77;;;;;;;2.17;90.15;101392.27;1765176;79;25766;-78
2022/11/29 01:49:18;;;;;;;44.93;23.52;;;;;;;2.18;90.24;101400.58;1757730;79;25773;-78
2022/11/29 01:52:07;;;;;;;51.95;26.05;;;;;;;2.19;90.34;101394.31;1759463;79;25803;-78
2022/11/29 01:54:42;;;;;;;44.80;23.92;;;;;;;2.19;90.37;101397.81;1719636;81;27460;-78
2022/11/29 01:57:10;;;;;;;48.48;23.50;;;;;;;2.20;90.28;101394.69;1757430;80;25868;-79
2022/11/29 01:59:41;;;;;;;48.98;24.77;;;;;;;2.18;90.22;101398.75;1753976;80;25787;-81
2022/11/29 02:02:17;;;;;;;;;;;;;;;2.17;90.29;101394.44;1761428;80;26731;-78
2022/11/29 02:04:46;;;;;;;50.33;24.35;;;;;;;2.19;90.33;101391.20;1732126;80;25864;-78
2022/11/29 02:07:13;;;;;;;49.10;24.77;;;;;;;2.19;90.40;101398.28;1748907;80;27437;-78
2022/11/29 02:09:39;;;;;;;50.70;26.05;;;;;;;2.20;90.42;101396.02;1759200;79;25719;-78
2022/11/29 02:12:14;;;;;;;47.33;23.77;;;;;;;2.21;90.29;101395.04;1760204;79;25715;-78
2022/11/29 02:14:46;;;;;;;48.42;23.60;;;;;;;2.21;90.29;101393.72;1754757;79;26323;-78
2022/11/29 02:17:42;;;;;;;44.73;23.87;;;;;;;2.21;90.21;101392.40;1749874;80;25813;-78
2022/11/29 02:20:26;;;;;;;44.20;22.20;;;;;;;2.20;90.26;101399.48;1754429;80;27460;-79
2022/11/29 02:23:13;;;;;;;41.65;22.65;;;;;;;2.21;90.29;101397.69;1750172;80;25787;-79
2022/11/29 02:26:17;;;;;;;43.38;22.37;;;;;;;2.22;90.31;101404.67;1752450;80;25863;-79
2022/11/29 02:29:26;;;;;;;44.73;23.02;;;;;;;2.19;90.25;101404.88;1752047;80;25768;-79
2022/11/29 02:32:28;;;;;;;44.08;23.55;;;;;;;2.17;90.21;101407.65;1731061;79;26339;-78
2022/11/29 02:35:10;;;;;;;;;;;;;;;2.17;90.28;101402.36;1737596;80;27468;-79
2022/11/29 02:38:05;;;;;;;47.48;24.12;;;;;;;2.19;90.41;101412.81;1753356;80;25546;-79
2022/11/29 02:41:15;;;;;;;45.63;22.60;;;;;;;2.17;90.37;101407.65;1753272;80;25770;-80
2022/11/29 02:44:36;;;;;;;46.28;24.47;;;;;;;2.19;90.36;101411.49;1753898;79;25794;-79
2022/11/29 02:47:46;;;;;;;49.48;24.20;;;;;;;2.18;90.46;101406.67;1768175;79;25734;-79
2022/11/29 02:50:56;;;;;;;46.47;25.80;;;;;;;2.19;90.40;101410.17;1762771;80;27475;-79
2022/11/29 02:53:37;;;;;;;47.67;24.47;;;;;;;2.19;90.38;101408.38;1753328;79;25952;-79
2022/11/29 02:56:16;;;;;;;;;;;;;;;2.19;90.40;101412.81;1758685;79;26481;-79
2022/11/29 02:58:57;;;;;;;47.60;22.87;;;;;;;2.18;90.28;101411.14;1760030;79;25548;-79
2022/11/29 03:01:34;;;;;;;46.80;24.27;;;;;;;2.18;90.47;101415.11;1758321;79;25902;-79
2022/11/29 03:04:12;;;;;;;48.40;24.75;;;;;;;2.18;90.50;101414.61;1766076;78;28434;-79
2022/11/29 03:07:06;;;;;;;45.52;24.27;;;;;;;2.20;90.50;101414.52;1670512;80;25842;-79
2022/11/29 03:09:47;;;;;;;51.83;24.92;;;;;;;2.19;90.40;101414.14;1761634;80;25832;-78
2022/11/29 03:12:22;;;;;;;47.17;24.57;;;;;;;2.19;90.42;101414.98;1753886;80;26352;-79
2022/11/29 03:15:26;;;;;;;45.85;25.23;;;;;;;2.20;90.36;101411.88;1758202;80;26478;-79
2022/11/29 03:18:28;;;;;;;54.10;24.50;;;;;;;2.19;90.36;101416.31;1761731;80;27467;-80
2022/11/29 03:21:09;;;;;;;44.03;22.27;;;;;;;2.21;90.43;101418.83;1727150;80;25312;-79
2022/11/29 03:23:49;;;;;;;48.45;25.00;;;;;;;2.20;90.37;101415.84;1816579;77;26370;-80
2022/11/29 03:26:40;;;;;;;50.13;24.10;;;;;;;2.18;90.37;101413.28;1797315;78;25781;-80
2022/11/29 03:29:35;;;;;;;45.33;22.75;;;;;;;2.18;90.24;101420.39;1749567;80;25915;-79
2022/11/29 03:32:25;;;;;;;44.30;24.30;;;;;;;2.13;90.27;101413.27;1754864;80;28263;-80
2022/11/29 03:35:26;;;;;;;54.05;25.17;;;;;;;2.14;90.58;101413.15;1758176;80;25841;-78
2022/11/29 03:38:18;;;;;;;50.10;24.65;;;;;;;2.18;90.56;101419.08;1759465;80;25827;-78
2022/11/29 03:41:17;;;;;;;51.28;24.05;;;;;;;2.20;90.72;101417.98;1759069;80;26486;-78
2022/11/29 03:43:58;;;;;;;52.05;24.63;;;;;;;2.24;90.73;101419.94;1723290;80;26009;-78
2022/11/29 03:47:11;;;;;;;52.75;23.47;;;;;;;2.24;90.44;101422.11;1746651;80;27447;-78
2022/11/29 03:50:00;;;;;;;58.48;27.90;;;;;;;2.23;90.46;101425.69;1762599;80;26152;-78
2022/11/29 03:52:50;;;;;;;55.23;27.20;;;;;;;2.24;90.62;101425.22;1784363;78;25909;-78
2022/11/29 03:55:28;;;;;;;54.93;28.87;;;;;;;2.26;90.55;101425.48;1776221;78;25749;-78
2022/11/29 03:58:49;;;;;;;54.10;25.95;;;;;;;2.24;90.50;101428.72;1765053;78;26369;-78
2022/11/29 04:01:43;;;;;;;57.10;27.65;;;;;;;2.21;90.42;101435.54;1776867;80;27468;-78
2022/11/29 04:04:33;;;;;;;57.43;28.62;;;;;;;2.20;90.57;101433.02;1772883;79;25964;-78
2022/11/29 04:07:26;;;;;;;60.23;27.43;;;;;;;2.18;90.51;101434.93;1779075;79;25858;-78
2022/11/29 04:10:30;;;;;;;58.02;28.40;;;;;;;2.17;90.53;101435.41;1782089;78;25845;-78
2022/11/29 04:13:26;;;;;;;54.35;26.17;;;;;;;2.12;90.38;101441.48;1778379;79;25949;-78
2022/11/29 04:16:17;;;;;;;56.85;28.80;;;;;;;2.07;90.54;101439.69;1661750;84;26754;-78
2022/11/29 04:19:01;;;;;;;61.65;28.20;;;;;;;2.09;90.76;101441.73;1617077;87;26600;-79
2022/11/29 04:22:00;;;;;;;56.18;26.20;;;;;;;2.10;90.84;101444.73;1698243;79;26587;-78
2022/11/29 04:25:11;;;;;;;58.33;27.35;;;;;;;2.11;90.73;101450.39;1701858;81;25957;-78
2022/11/29 04:28:07;;;;;;;54.35;27.60;;;;;;;2.10;90.79;101446.05;1754260;79;25795;-79
2022/11/29 04:31:29;;;;;;;56.63;26.27;;;;;;;2.09;90.71;101450.13;1745198;79;27458;-79
2022/11/29 04:34:25;;;;;;;60.10;29.60;;;;;;;2.08;90.85;101449.75;1757853;79;25907;-78
2022/11/29 04:37:24;;;;;;;53.83;25.82;;;;;;;2.10;91.03;101453.13;1752308;79;26196;-79
2022/11/29 04:40:20;;;;;;;58.28;26.48;;;;;;;2.10;90.94;101449.16;1737160;80;25787;-78
2022/11/29 04:43:28;;;;;;;57.58;26.93;;;;;;;2.09;90.90;101456.73;1740487;80;25877;-78
2022/11/29 04:46:27;;;;;;;65.50;29.23;;;;;;;2.06;90.89;101456.95;1739849;80;27457;-79
2022/11/29 04:49:31;;;;;;;63.20;29.32;;;;;;;2.06;90.89;101456.95;1755403;80;26289;-79
2022/11/29 04:52:23;;;;;;;57.65;27.07;;;;;;;2.03;90.86;101452.72;1795380;78;25873;-78
2022/11/29 04:55:33;;;;;;;60.48;28.40;;;;;;;2.00;90.89;101467.97;1771589;78;25474;-78
2022/11/29 04:58:40;;;;;;;57.13;27.93;;;;;;;1.97;90.99;101460.25;1754978;80;25765;-78
2022/11/29 05:01:59;;;;;;;65.90;31.17;;;;;;;1.97;91.06;101469.03;1771523;78;27303;-78
2022/11/29 05:04:49;;;;;;;59.35;27.55;;;;;;;1.99;91.33;101463.66;1749103;80;26512;-79
2022/11/29 05:07:41;;;;;;;55.97;26.37;;;;;;;1.99;91.24;101469.76;1740610;80;25773;-79
2022/11/29 05:10:27;;;;;;;60.00;28.42;;;;;;;1.98;91.20;101469.88;1742888;80;26558;-79
2022/11/29 05:13:39;;;;;;;65.92;29.30;;;;;;;1.98;91.36;101473.38;1742473;80;26357;-79
2022/11/29 05:16:19;;;;;;;63.68;29.50;;;;;;;1.98;91.16;101475.16;1755392;80;28540;-79
2022/11/29 05:19:09;;;;;;;62.58;30.08;;;;;;;2.03;91.54;101474.37;1751283;80;25733;-79
2022/11/29 05:21:56;;;;;;;61.42;28.38;;;;;;;2.04;91.37;101476.89;1752609;80;25780;-79
2022/11/29 05:25:04;;;;;;;62.45;30.32;;;;;;;2.02;91.31;101478.80;1768825;79;25824;-80
2022/11/29 05:27:53;;;;;;;64.85;30.97;;;;;;;2.05;91.42;101482.52;1750254;80;26341;-79
2022/11/29 05:30:23;;;;;;;65.20;29.55;;;;;;;2.06;91.38;101490.83;1750639;80;28280;-79
2022/11/29 05:32:58;;;;;;;67.43;30.30;;;;;;;2.06;91.22;101489.98;1761984;79;26390;-79
2022/11/29 05:36:13;;;;;;;63.45;29.98;;;;;;;2.02;91.12;101491.16;1762699;79;26466;-79
2022/11/29 05:38:45;;;;;;;59.48;27.85;;;;;;;2.01;91.18;101500.88;1759926;79;25841;-79
2022/11/29 05:41:22;;;;;;;67.30;32.70;;;;;;;1.98;91.21;101502.91;1815390;77;26393;-79
2022/11/29 05:44:11;;;;;;;64.82;29.75;;;;;;;1.96;91.21;101503.49;1775285;79;27597;-79
2022/11/29 05:47:01;;;;;;;63.52;30.12;;;;;;;1.97;91.38;101510.45;1775555;79;26041;-79
2022/11/29 05:49:50;;;;;;;67.72;29.87;;;;;;;1.99;91.42;101507.25;1756820;80;25836;-78
2022/11/29 05:52:24;;;;;;;65.83;32.53;;;;;;;2.00;91.47;101507.60;1766296;79;26439;-78
2022/11/29 05:55:16;;;;;;;68.92;33.08;;;;;;;1.99;91.55;101508.07;1823101;77;25795;-79
2022/11/29 05:57:57;;;;;;;66.17;31.50;;;;;;;1.99;91.39;101513.86;1809218;77;27445;-79
2022/11/29 06:00:27;;;;;;;78.15;33.88;;;;;;;1.96;91.35;101510.09;1806201;76;25747;-79
2022/11/29 06:03:30;;;;;;;74.90;32.97;;;;;;;1.96;91.43;101518.02;1764116;80;25776;-79
2022/11/29 06:06:31;;;;;;;73.62;32.20;;;;;;;1.94;91.45;101515.97;1755320;80;26567;-79
2022/11/29 06:09:09;;;;;;;69.82;32.13;;;;;;;1.96;91.63;101522.84;1752882;80;25753;-79
2022/11/29 06:11:49;;;;;;;75.17;32.25;;;;;;;2.01;91.77;101519.88;1758285;79;27599;-79
2022/11/29 06:14:46;;;;;;;80.10;35.48;;;;;;;2.02;91.62;101521.55;1760541;80;26347;-80
2022/11/29 06:17:30;;;;;;;71.60;34.65;;;;;;;2.03;91.44;101533.81;1764716;80;25806;-80
2022/11/29 06:20:08;;;;;;;77.85;34.75;;;;;;;1.97;91.24;101525.83;1761169;80;26165;-79
2022/11/29 06:22:51;;;;;;;70.28;32.13;;;;;;;1.95;91.27;101534.81;1757462;80;25778;-79
2022/11/29 06:25:46;;;;;;;70.83;31.12;;;;;;;1.97;91.54;101535.08;1752768;81;27513;-79
2022/11/29 06:28:44;;;;;;;75.10;31.50;;;;;;;1.96;91.45;101533.88;1762048;80;26436;-79
2022/11/29 06:31:20;;;;;;;74.95;32.53;;;;;;;1.97;91.65;101536.88;1762756;80;25699;-79
2022/11/29 06:34:10;;;;;;;69.07;32.55;;;;;;;2.01;91.74;101539.19;1765540;80;25919;-79
2022/11/29 06:36:56;;;;;;;70.52;31.10;;;;;;;2.02;91.81;101538.25;1753756;79;25724;-79
2022/11/29 06:39:23;;;;;;;69.22;31.17;;;;;;;2.05;91.64;101539.83;1748397;79;28701;-79
2022/11/29 06:41:50;;;;;;;77.47;31.93;;;;;;;2.03;91.58;101537.78;1756055;79;25857;-79
2022/11/29 06:44:16;;;;;;;77.00;32.53;;;;;;;2.01;91.44;101541.83;1754475;79;26485;-79
2022/11/29 06:46:57;;;;;;;70.30;29.82;;;;;;;1.98;91.38;101551.31;1760201;79;26177;-79
2022/11/29 06:49:44;;;;;;;69.25;29.35;;;;;;;1.98;91.52;101550.47;1742957;79;25819;-79
2022/11/29 06:52:31;;;;;;;65.28;29.82;;;;;;;2.00;91.54;101557.80;1738878;79;28256;-79
2022/11/29 06:55:06;;;;;;;65.83;28.70;;;;;;;1.97;91.57;101550.94;1760355;79;25941;-79
2022/11/29 06:58:05;;;;;;;73.22;31.25;;;;;;;1.97;91.66;101553.58;1764627;79;25873;-78
2022/11/29 07:00:43;;;;;;;67.60;30.12;;;;;;;1.98;91.67;101561.03;1741633;79;25849;-78
2022/11/29 07:03:24;;;;;;;67.03;31.42;;;;;;;1.98;91.69;101563.67;1742134;79;25836;-79
2022/11/29 07:05:51;;;;;;;66.95;30.32;;;;;;;1.96;91.69;101564.27;1760159;79;27395;-79
2022/11/29 07:08:21;;;;;;;70.78;31.40;;;;;;;1.98;91.74;101558.39;1760829;79;25864;-79
2022/11/29 07:10:52;;;;;;;67.37;30.95;;;;;;;1.99;91.78;101564.06;1742402;80;26740;-78
2022/11/29 07:13:19;;;;;;;71.00;32.17;;;;;;;2.01;91.77;101568.25;1736087;80;25753;-78
2022/11/29 07:16:09;;;;;;;70.20;30.82;;;;;;;2.03;91.78;101568.17;1755880;79;25677;-79
2022/11/29 07:18:56;;;;;;;67.32;31.60;;;;;;;2.00;91.74;101565.73;1756102;79;27468;-78
2022/11/29 07:21:55;;;;;;;66.87;32.58;;;;;;;2.00;91.79;101564.41;1756622;78;25810;-79
2022/11/29 07:24:47;;;;;;;65.55;29.25;;;;;;;2.01;91.92;101568.25;1757766;78;25972;-79
2022/11/29 07:27:24;;;;;;;61.63;30.48;;;;;;;2.02;91.91;101568.64;1760742;78;25944;-80
2022/11/29 07:30:11;;;;;;;71.02;33.45;;;;;;;2.01;91.94;101577.50;1773567;78;26422;-87
2022/11/29 07:33:07;;;;;;;67.70;33.25;;;;;;;2.02;92.02;101577.89;1777609;78;27426;-83
2022/11/29 07:35:42;;;;;;;65.78;34.63;;;;;;;2.04;92.15;101573.80;1765243;80;25809;-84
2022/11/29 07:38:16;;;;;;;68.65;33.70;;;;;;;2.07;92.06;101583.70;1777230;78;26155;-80
2022/11/29 07:41:09;;;;;;;69.17;34.25;;;;;;;2.06;92.13;101579.36;1781450;78;26083;-83
2022/11/29 07:43:47;;;;;;;60.25;29.70;;;;;;;2.11;92.30;101579.03;1757704;78;25945;-84
2022/11/29 07:46:13;;;;;;;64.42;32.03;;;;;;;2.11;92.15;101578.56;1763170;78;27449;-80
2022/11/29 07:48:40;;;;;;;66.60;32.40;;;;;;;2.11;92.20;101579.88;1766337;78;25662;-81
2022/11/29 07:51:06;;;;;;;60.50;32.90;;;;;;;2.15;92.23;101579.17;1793349;78;26501;-81
2022/11/29 07:53:38;;;;;;;79.75;40.38;;;;;;;2.16;92.28;101584.34;1781939;80;25438;-82
2022/11/29 07:56:04;;;;;;;80.77;38.10;;;;;;;2.19;92.15;101585.93;1769648;78;25785;-81
2022/11/29 07:58:31;;;;;;;112.60;48.70;;;;;;;2.18;92.15;101586.91;1790648;78;27436;-81
2022/11/29 08:00:57;;;;;;;169.70;69.95;;;;;;;2.19;92.19;101585.93;1776879;78;26394;-82
2022/11/29 08:03:28;;;;;;;331.17;110.95;;;;;;;2.19;92.17;101585.46;1781073;78;25792;-93
2022/11/29 08:06:22;;;;;;;146.90;55.67;;;;;;;2.21;91.99;101583.55;1766630;78;25732;-93
2022/11/29 08:09:06;;;;;;;;;;;;;;;;;;;;;
2022/11/29 08:11:38;;;;;;;;;;;;;;;;;;;;;
2022/11/29 08:16:37;;;;;;;377.20;129.15;;;;;;;2.17;91.57;101582.09;1648536;83;25649;-85
2022/11/29 08:19:04;;;;;;;159.97;63.45;;;;;;;2.14;91.56;101589.37;1729720;80;25767;-89
2022/11/29 08:21:34;;;;;;;307.65;120.10;;;;;;;2.14;91.69;101588.90;1778179;79;25988;-87
2022/11/29 08:24:00;;;;;;;219.72;92.85;;;;;;;2.16;91.75;101589.63;1784106;79;28240;-87
2022/11/29 08:26:28;;;;;;;105.90;49.88;;;;;;;2.18;91.88;101582.44;1771468;79;25927;-87
2022/11/29 08:28:56;;;;;;;87.97;46.47;;;;;;;2.22;91.86;101593.16;1774643;80;25632;-88
2022/11/29 08:31:23;;;;;;;58.95;32.10;;;;;;;2.27;91.88;101589.72;1773687;79;25788;-90
2022/11/29 08:33:49;;;;;;;54.42;26.55;;;;;;;2.27;91.63;101594.16;1778993;79;25913;-92
2022/11/29 08:36:33;;;;;;;52.33;27.13;;;;;;;2.25;91.45;101595.59;1759348;80;27418;-91
2022/11/29 08:39:01;;;;;;;53.83;27.07;;;;;;;2.26;91.54;101593.33;1767528;80;25478;-87
2022/11/29 08:41:27;;;;;;;46.73;25.15;;;;;;;2.27;91.51;101593.69;1763901;79;26153;-85
2022/11/29 08:43:53;;;;;;;52.60;27.05;;;;;;;2.29;91.44;101593.09;1771531;79;26807;-88
2022/11/29 08:46:19;;;;;;;59.53;27.95;;;;;;;2.28;91.28;101594.53;1753160;79;25835;-86
2022/11/29 08:48:46;;;;;;;70.85;33.50;;;;;;;2.29;91.24;101592.24;1771886;79;27521;-87
2022/11/29 08:51:14;;;;;;;76.05;37.00;;;;;;;2.30;91.34;101594.80;1781575;79;25877;-85
2022/11/29 08:53:40;;;;;;;67.58;33.70;;;;;;;2.31;91.12;101596.94;1848451;77;25284;-89
2022/11/29 08:56:14;;;;;;;63.25;33.83;;;;;;;2.28;91.06;101590.57;1843800;77;25886;-88
2022/11/29 08:58:47;;;;;;;61.30;31.25;;;;;;;2.29;91.24;101590.92;1747995;80;25723;-91
2022/11/29 09:01:17;;;;;;;61.92;31.97;;;;;;;2.32;91.27;101588.07;1770426;80;27470;-88
2022/11/29 09:04:01;;;;;;;60.98;29.70;;;;;;;2.33;91.17;101589.27;1763408;80;25530;-84
2022/11/29 09:06:32;;;;;;;64.05;32.67;;;;;;;2.35;91.05;101587.86;1766626;79;25768;-87
2022/11/29 09:09:00;;;;;;;69.67;32.73;;;;;;;2.35;91.01;101593.15;1773073;78;26800;-81
2022/11/29 09:11:28;;;;;;;63.00;33.30;;;;;;;2.37;91.08;101593.03;1787479;78;25982;-86
2022/11/29 09:13:59;;;;;;;74.77;40.17;;;;;;;2.38;90.79;101590.27;1781572;78;28248;-82
2022/11/29 09:16:29;;;;;;;67.42;35.68;;;;;;;2.38;90.86;101594.70;1779569;78;25794;-82
2022/11/29 09:18:56;;;;;;;58.45;30.80;;;;;;;2.40;90.88;101589.68;1781148;78;25875;-88
2022/11/29 09:21:25;;;;;;;61.30;29.75;;;;;;;2.41;90.91;101592.70;1770151;78;26665;-89
2022/11/29 09:23:57;;;;;;;71.02;32.13;;;;;;;2.44;90.99;101590.33;1774442;78;25288;-87
2022/11/29 09:26:33;;;;;;;57.95;28.12;;;;;;;2.46;91.02;101594.52;1760370;78;26226;-82
2022/11/29 09:29:05;;;;;;;49.67;26.17;;;;;;;2.49;90.77;101594.31;1779891;78;26477;-83
2022/11/29 09:31:33;;;;;;;55.78;28.25;;;;;;;2.51;90.82;101593.72;1769201;78;26186;-83
2022/11/29 09:33:59;;;;;;;58.98;29.20;;;;;;;2.52;90.88;101587.96;1773502;78;26168;-81
2022/11/29 09:36:28;;;;;;;57.93;28.83;;;;;;;2.54;90.78;101593.52;1773188;78;25832;-82
2022/11/29 09:38:55;;;;;;;57.62;29.60;;;;;;;2.55;90.80;101589.89;1775196;78;27526;-82
2022/11/29 09:41:53;;;;;;;67.42;32.13;;;;;;;2.58;90.98;101594.12;1771102;78;25756;-82
2022/11/29 09:44:28;;;;;;;58.50;30.65;;;;;;;2.60;90.73;101589.09;1776782;78;25790;-81
2022/11/29 09:47:18;;;;;;;59.88;30.05;;;;;;;2.60;90.62;101593.53;1784411;79;25810;-81
2022/11/29 09:50:12;;;;;;;55.13;28.33;;;;;;;2.61;90.41;101594.73;1787717;78;25887;-82
2022/11/29 09:53:35;;;;;;;53.30;29.05;;;;;;;2.61;90.28;101590.77;1776914;79;27432;-81
2022/11/29 09:56:18;;;;;;;69.77;32.63;;;;;;;2.65;90.47;101592.73;1753607;81;25778;-81
2022/11/29 09:58:50;;;;;;;61.77;30.30;;;;;;;2.62;90.00;101591.62;1797103;78;26380;-81
2022/11/29 10:01:22;;;;;;;63.10;30.17;;;;;;;2.63;90.05;101593.32;1781808;78;26238;-81
2022/11/29 10:03:57;;;;;;;51.65;26.97;;;;;;;2.64;90.03;101590.55;1777338;79;25752;-82
2022/11/29 10:06:30;;;;;;;57.17;28.57;;;;;;;2.65;89.78;101594.88;1773844;79;27736;-81
2022/11/29 10:09:38;;;;;;;59.50;28.67;;;;;;;2.64;89.83;101583.09;1790928;78;25778;-81
2022/11/29 10:12:16;;;;;;;51.77;27.48;;;;;;;2.62;89.72;101591.14;1780665;79;36486;-82
2022/11/29 10:14:48;;;;;;;57.40;30.02;;;;;;;2.62;89.62;101586.33;1752203;79;26250;-81
2022/11/29 10:17:51;;;;;;;66.82;32.75;;;;;;;2.63;89.61;101584.06;1773444;79;25873;-81
2022/11/29 10:20:25;;;;;;;60.15;31.02;;;;;;;2.65;89.58;101584.30;1790219;79;28069;-82
2022/11/29 10:23:16;;;;;;;57.70;28.50;;;;;;;2.70;89.71;101590.57;1792298;79;25863;-82
2022/11/29 10:25:55;;;;;;;57.83;30.57;;;;;;;2.70;89.37;101582.64;1732490;80;25863;-81
2022/11/29 10:28:25;;;;;;;51.45;28.57;;;;;;;2.72;89.45;101584.69;1759544;80;25798;-81
2022/11/29 10:30:59;;;;;;;62.83;31.15;;;;;;;2.72;89.38;101584.69;1743198;80;25853;-82
2022/11/29 10:33:33;;;;;;;58.17;31.27;;;;;;;2.75;89.56;101590.62;1734001;80;27439;-82
2022/11/29 10:36:04;;;;;;;56.98;30.97;;;;;;;2.79;89.54;101588.11;1763869;79;26034;-81
2022/11/29 10:38:30;;;;;;;70.47;32.42;;;;;;;2.83;89.47;101584.75;1760774;79;26037;-82
2022/11/29 10:41:02;;;;;;;60.95;33.10;;;;;;;2.86;89.39;101585.86;1767367;79;25820;-81
2022/11/29 10:43:28;;;;;;;67.87;36.05;;;;;;;2.89;89.53;101577.20;1760091;79;25826;-82
2022/11/29 10:45:55;;;;;;;95.55;56.30;;;;;;;2.95;89.55;101585.19;1755984;79;27455;-82
2022/11/29 10:48:40;;;;;;;77.27;40.55;;;;;;;2.97;89.41;101585.91;1771123;80;25274;-94
2022/11/29 10:51:12;;;;;;;76.85;42.80;;;;;;;2.97;89.37;101577.47;1642550;85;25747;-81
2022/11/29 10:53:39;;;;;;;139.22;79.55;;;;;;;2.99;89.13;101586.64;1764369;80;25796;-86
2022/11/29 10:56:36;;;;;;;;;;;;;;;;;;;;;
2022/11/29 10:59:14;;;;;;;;;;;;;;;;;;;;;
2022/11/29 11:01:38;;;;;;;84.87;55.70;;;;;;;2.99;88.99;101584.81;1727461;81;25352;-89
2022/11/29 11:04:14;;;;;;;78.37;48.68;;;;;;;3.04;89.26;101584.00;1771229;79;25326;-85
2022/11/29 11:06:48;;;;;;;79.12;45.05;;;;;;;3.05;89.02;101583.53;1753625;79;26268;-81
2022/11/29 11:09:39;;;;;;;88.27;49.27;;;;;;;3.07;88.96;101586.44;1737317;79;25935;-81
2022/11/29 11:12:16;;;;;;;86.30;50.08;;;;;;;3.08;88.83;101589.43;1774902;79;27547;-81
2022/11/29 11:14:43;;;;;;;66.05;38.73;;;;;;;3.10;88.86;101586.69;1769766;79;25742;-80
2022/11/29 11:17:26;;;;;;;72.03;38.45;;;;;;;3.11;88.85;101590.53;1765592;79;25756;-81
2022/11/29 11:20:00;;;;;;;67.80;36.58;;;;;;;3.13;88.69;101589.94;1775306;79;25754;-81
2022/11/29 11:22:27;;;;;;;74.12;42.83;;;;;;;3.14;88.64;101592.11;1765047;79;25965;-81
2022/11/29 11:25:08;;;;;;;80.22;40.50;;;;;;;3.15;88.51;101589.81;1769898;79;28423;-81
2022/11/29 11:27:41;;;;;;;67.15;37.20;;;;;;;3.17;88.42;101587.89;1766633;79;26008;-81
2022/11/29 11:30:28;;;;;;;98.12;48.98;;;;;;;3.17;88.35;101585.72;1780406;79;25295;-81
2022/11/29 11:33:28;;;;;;;93.75;47.03;;;;;;;3.16;88.36;101589.34;1747335;80;26246;-81
2022/11/29 11:36:20;;;;;;;178.07;79.90;;;;;;;3.19;88.52;101587.80;1770263;80;25766;-81
2022/11/29 11:38:54;;;;;;;224.07;90.50;;;;;;;3.21;88.62;101592.50;1769062;79;27496;-82
2022/11/29 11:44:39;;;;;;;447.77;178.27;;;;;;;3.17;87.73;101589.69;1777827;79;25784;-85
2022/11/29 11:47:18;;;;;;;336.35;136.57;;;;;;;3.15;87.67;101591.14;1762056;79;25783;-88
2022/11/29 11:50:05;;;;;;;210.55;89.52;;;;;;;3.12;87.52;101590.88;1767647;79;26350;-85
2022/11/29 11:53:00;;;;;;;284.48;121.05;;;;;;;3.10;87.53;101590.66;1769722;79;27461;-87
2022/11/29 11:55:37;;;;;;;185.07;86.45;;;;;;;3.10;87.51;101592.80;1741876;79;25985;-85
2022/11/29 11:58:16;;;;;;;103.05;60.08;;;;;;;3.10;87.28;101591.98;1777881;79;25291;-86
2022/11/29 12:00:51;;;;;;;77.50;47.93;;;;;;;3.08;87.26;101590.75;1776374;78;26242;-85
2022/11/29 12:04:04;;;;;;;86.25;51.85;;;;;;;3.08;87.27;101596.52;1775775;78;25788;-86
2022/11/29 12:07:02;;;;;;;67.27;35.15;;;;;;;3.07;87.26;101598.34;1752090;81;27464;-85
2022/11/29 12:09:48;;;;;;;79.12;45.20;;;;;;;3.12;87.77;101609.92;1726744;81;25864;-85
2022/11/29 12:12:32;;;;;;;67.15;38.25;;;;;;;3.16;87.88;101606.55;1767422;79;25328;-84
2022/11/29 12:15:06;;;;;;;79.65;44.55;;;;;;;3.20;87.80;101606.20;1764259;79;26494;-84
2022/11/29 12:17:38;;;;;;;65.95;36.55;;;;;;;3.22;87.54;101601.64;1772760;79;25729;-82
2022/11/29 12:20:35;;;;;;;68.95;39.53;;;;;;;3.24;87.50;101602.84;1828492;77;27427;-82
2022/11/29 12:23:17;;;;;;;69.07;36.88;;;;;;;3.24;87.26;101606.81;1826912;77;25895;-82
2022/11/29 12:26:09;;;;;;;74.70;46.80;;;;;;;3.23;87.02;101612.58;1823916;77;25332;-82
2022/11/29 12:28:39;;;;;;;67.70;39.15;;;;;;;3.21;87.09;101614.50;1817110;77;25781;-82